sensor_id;sensor_type;location;lat;lon;timestamp;pressure;altitude;pressure_sealevel;temperature;humidity
7586;BME280;12459;42.646;23.292;2023-04-06T00:12:36;93047.88;;;0.37;81.73
7586;BME280;12459;42.646;23.292;2023-04-06T00:27:38;93374.81;;;2.88;81.37
7586;BME280;12459;42.646;23.292;2023-04-06T00:42:40;93367.50;;;2.78;80.88
7586;BME280;12459;42.646;23.292;2023-04-06T00:57:43;93189.84;;;1.52;81.89
7586;BME280;12459;42.646;23.292;2023-04-06T01:12:44;92986.75;;;0.27;81.81
7586;BME280;12459;42.646;23.292;2023-04-06T01:27:46;93062.78;;;0.75;82.49
7586;BME280;12459;42.646;23.292;2023-04-06T01:42:48;93317.81;;;2.34;83.06
7586;BME280;12459;42.646;23.292;2023-04-06T01:57:50;93210.41;;;1.66;83.54
7586;BME280;12459;42.646;23.292;2023-04-06T02:12:52;93263.03;;;2.31;82.91
7586;BME280;12459;42.646;23.292;2023-04-06T02:27:54;93356.38;;;2.95;83.21
7586;BME280;12459;42.646;23.292;2023-04-06T02:42:56;93055.00;;;1.08;82.72
7586;BME280;12459;42.646;23.292;2023-04-06T02:57:57;93187.19;;;1.79;83.06
7586;BME280;12459;42.646;23.292;2023-04-06T03:12:59;93183.28;;;1.69;83.31
7586;BME280;12459;42.646;23.292;2023-04-06T03:28:01;93201.41;;;1.97;83.73
7586;BME280;12459;42.646;23.292;2023-04-06T03:43:04;93330.25;;;2.90;82.95
7586;BME280;12459;42.646;23.292;2023-04-06T03:58:05;93243.94;;;1.88;82.92
7586;BME280;12459;42.646;23.292;2023-04-06T04:13:07;93020.50;;;0.68;83.01
7586;BME280;12459;42.646;23.292;2023-04-06T04:28:09;92786.91;;;-0.53;80.93
7586;BME280;12459;42.646;23.292;2023-04-06T04:43:11;93302.09;;;3.08;80.21
7586;BME280;12459;42.646;23.292;2023-04-06T04:58:12;93188.06;;;2.46;79.51
7586;BME280;12459;42.646;23.292;2023-04-06T05:13:18;93179.63;;;3.11;78.21
7586;BME280;12459;42.646;23.292;2023-04-06T05:28:20;92996.94;;;1.68;78.47
7586;BME280;12459;42.646;23.292;2023-04-06T05:43:21;93202.41;;;3.19;79.92
7586;BME280;12459;42.646;23.292;2023-04-06T05:58:23;93296.28;;;4.18;79.80
7586;BME280;12459;42.646;23.292;2023-04-06T06:13:25;93369.91;;;4.38;79.45
7586;BME280;12459;42.646;23.292;2023-04-06T06:28:27;93088.72;;;2.89;78.94
7586;BME280;12459;42.646;23.292;2023-04-06T06:43:29;93167.66;;;4.66;76.64
7586;BME280;12459;42.646;23.292;2023-04-06T06:58:31;93266.84;;;4.40;77.14
7586;BME280;12459;42.646;23.292;2023-04-06T07:13:32;93082.31;;;4.32;77.18
7586;BME280;12459;42.646;23.292;2023-04-06T07:28:34;93314.00;;;6.16;76.57
7586;BME280;12459;42.646;23.292;2023-04-06T07:43:36;93101.72;;;5.14;75.19
7586;BME280;12459;42.646;23.292;2023-04-06T07:58:38;93197.75;;;5.38;74.62
7586;BME280;12459;42.646;23.292;2023-04-06T08:14:04;93286.25;;;6.27;74.07
7586;BME280;12459;42.646;23.292;2023-04-06T08:29:06;93094.16;;;5.09;72.58
7586;BME280;12459;42.646;23.292;2023-04-06T08:44:11;93161.69;;;5.44;72.58
7586;BME280;12459;42.646;23.292;2023-04-06T08:59:13;93297.63;;;6.56;72.14
7586;BME280;12459;42.646;23.292;2023-04-06T09:14:16;92702.47;;;2.93;70.84
7586;BME280;12459;42.646;23.292;2023-04-06T09:29:25;93289.94;;;6.76;70.05
7586;BME280;12459;42.646;23.292;2023-04-06T09:44:30;93257.31;;;6.54;70.58
7586;BME280;12459;42.646;23.292;2023-04-06T10:14:51;93190.75;;;7.31;68.26
7586;BME280;12459;42.646;23.292;2023-04-06T10:29:53;93148.63;;;7.63;64.47
7586;BME280;12459;42.646;23.292;2023-04-06T10:44:55;93256.84;;;8.06;63.77
7586;BME280;12459;42.646;23.292;2023-04-06T10:59:57;93104.78;;;7.20;64.46
7586;BME280;12459;42.646;23.292;2023-04-06T11:15:00;93242.00;;;8.05;64.90
7586;BME280;12459;42.646;23.292;2023-04-06T11:30:07;92980.44;;;6.02;64.32
7586;BME280;12459;42.646;23.292;2023-04-06T11:45:15;93249.06;;;7.77;66.59
7586;BME280;12459;42.646;23.292;2023-04-06T12:00:17;92680.16;;;3.69;64.03
7586;BME280;12459;42.646;23.292;2023-04-06T12:15:19;93031.50;;;6.49;64.60
7586;BME280;12459;42.646;23.292;2023-04-06T12:30:21;92886.22;;;5.34;65.36
7586;BME280;12459;42.646;23.292;2023-04-06T12:45:23;92646.50;;;3.59;62.25
7586;BME280;12459;42.646;23.292;2023-04-06T13:00:24;93057.13;;;6.81;62.82
7586;BME280;12459;42.646;23.292;2023-04-06T13:15:27;92923.13;;;5.87;60.63
7586;BME280;12459;42.646;23.292;2023-04-06T13:30:28;92778.16;;;3.90;63.86
7586;BME280;12459;42.646;23.292;2023-04-06T13:45:30;93023.38;;;5.97;63.64
7586;BME280;12459;42.646;23.292;2023-04-06T14:00:32;93120.78;;;6.61;63.14
7586;BME280;12459;42.646;23.292;2023-04-06T14:15:34;92936.66;;;5.41;62.06
7586;BME280;12459;42.646;23.292;2023-04-06T14:30:36;92938.19;;;5.35;62.34
7586;BME280;12459;42.646;23.292;2023-04-06T14:45:39;92957.19;;;5.19;63.36
7586;BME280;12459;42.646;23.292;2023-04-06T15:00:41;93051.13;;;5.93;63.49
7586;BME280;12459;42.646;23.292;2023-04-06T15:15:43;93190.31;;;6.73;63.16
7586;BME280;12459;42.646;23.292;2023-04-06T15:30:45;93033.47;;;4.90;64.89
7586;BME280;12459;42.646;23.292;2023-04-06T15:45:47;93193.91;;;6.24;66.29
7586;BME280;12459;42.646;23.292;2023-04-06T16:00:49;92970.56;;;4.52;68.47
7586;BME280;12459;42.646;23.292;2023-04-06T16:15:50;93102.13;;;5.24;68.91
7586;BME280;12459;42.646;23.292;2023-04-06T16:30:52;93126.00;;;5.13;69.80
7586;BME280;12459;42.646;23.292;2023-04-06T16:45:54;93125.97;;;4.63;70.33
7586;BME280;12459;42.646;23.292;2023-04-06T17:00:56;93213.19;;;4.75;69.56
7586;BME280;12459;42.646;23.292;2023-04-06T17:16:03;93206.31;;;4.64;68.51
7586;BME280;12459;42.646;23.292;2023-04-06T17:31:09;93319.56;;;5.29;67.82
7586;BME280;12459;42.646;23.292;2023-04-06T17:46:11;93187.16;;;4.15;66.23
7586;BME280;12459;42.646;23.292;2023-04-06T18:01:13;93158.00;;;3.50;66.91
7586;BME280;12459;42.646;23.292;2023-04-06T18:16:16;92788.59;;;1.08;65.79
7586;BME280;12459;42.646;23.292;2023-04-06T18:31:20;93037.00;;;2.99;65.74
7586;BME280;12459;42.646;23.292;2023-04-06T18:46:23;93199.22;;;4.06;63.06
7586;BME280;12459;42.646;23.292;2023-04-06T19:01:27;93387.91;;;5.39;62.23
7586;BME280;12459;42.646;23.292;2023-04-06T19:16:29;93297.41;;;3.69;66.37
7586;BME280;12459;42.646;23.292;2023-04-06T19:31:31;93392.44;;;5.35;63.03
7586;BME280;12459;42.646;23.292;2023-04-06T19:46:33;93213.59;;;4.01;62.21
7586;BME280;12459;42.646;23.292;2023-04-06T20:01:34;93011.41;;;1.48;64.93
7586;BME280;12459;42.646;23.292;2023-04-06T20:16:37;93419.06;;;4.80;62.90
7586;BME280;12459;42.646;23.292;2023-04-06T20:31:39;93284.19;;;3.72;59.82
7586;BME280;12459;42.646;23.292;2023-04-06T20:46:40;93195.19;;;2.42;61.44
7586;BME280;12459;42.646;23.292;2023-04-06T21:01:43;93438.59;;;4.10;62.90
7586;BME280;12459;42.646;23.292;2023-04-06T21:16:45;93445.75;;;3.69;63.24
7586;BME280;12459;42.646;23.292;2023-04-06T21:31:47;93192.38;;;2.28;63.49
7586;BME280;12459;42.646;23.292;2023-04-06T21:46:50;93165.16;;;2.24;62.68
7586;BME280;12459;42.646;23.292;2023-04-06T22:01:52;93146.78;;;2.05;63.14
7586;BME280;12459;42.646;23.292;2023-04-06T22:16:57;93170.72;;;2.49;62.75
7586;BME280;12459;42.646;23.292;2023-04-06T22:31:59;93373.00;;;3.59;63.02
7586;BME280;12459;42.646;23.292;2023-04-06T22:47:02;93418.00;;;4.33;61.58
7586;BME280;12459;42.646;23.292;2023-04-06T23:02:04;93416.81;;;4.27;61.17
7586;BME280;12459;42.646;23.292;2023-04-06T23:17:06;93219.97;;;2.64;62.77
7586;BME280;12459;42.646;23.292;2023-04-06T23:32:08;93363.97;;;3.64;61.87
7586;BME280;12459;42.646;23.292;2023-04-06T23:47:11;93378.25;;;3.56;62.53
